Time;durP1;ratioP1;P1;durP2;ratioP2;P2;SDS_P1;SDS_P2;PMS_P1;PMS_P2;Temp;Humidity;BMP_temperature;BMP_pressure;BME280_temperature;BME280_humidity;BME280_pressure;Samples;Min_cycle;Max_cycle;Signal;HPM_P1;HPM_P2
2022/01/19 00:00:46;;;;;;;2.30;2.10;;;;;;;;;;4902396;29;20181;-75
2022/01/19 00:03:12;;;;;;;2.50;2.30;;;;;;;;;;4917713;29;20209;-75
2022/01/19 00:05:39;;;;;;;3.07;2.50;;;;;;;;;;4918208;29;20265;-75
2022/01/19 00:08:05;;;;;;;2.80;2.30;;;;;;;;;;4902114;29;20631;-75
2022/01/19 00:10:31;;;;;;;2.40;2.20;;;;;;;;;;4902407;29;20189;-75
2022/01/19 00:12:58;;;;;;;2.50;2.30;;;;;;;;;;4917865;29;20281;-74
2022/01/19 00:15:26;;;;;;;2.67;2.47;;;;;;;;;;4919918;29;20209;-75
2022/01/19 00:17:55;;;;;;;3.47;2.43;;;;;;;;;;4921432;29;20202;-75
2022/01/19 00:20:21;;;;;;;2.73;2.40;;;;;;;;;;4921499;29;20177;-75
2022/01/19 00:22:47;;;;;;;2.50;2.30;;;;;;;;;;4921377;29;20292;-75
2022/01/19 00:25:13;;;;;;;2.83;2.53;;;;;;;;;;4921165;29;20280;-75
2022/01/19 00:27:39;;;;;;;2.70;2.50;;;;;;;;;;4905592;29;20276;-75
2022/01/19 00:30:06;;;;;;;2.53;2.33;;;;;;;;;;4921229;29;20225;-75
2022/01/19 00:32:33;;;;;;;3.33;2.40;;;;;;;;;;4921037;29;20293;-75
2022/01/19 00:34:59;;;;;;;4.30;2.37;;;;;;;;;;4921006;29;20637;-75
2022/01/19 00:37:25;;;;;;;3.00;2.57;;;;;;;;;;4921261;29;20223;-75
2022/01/19 00:39:51;;;;;;;2.90;2.70;;;;;;;;;;4921082;29;20185;-75
2022/01/19 00:42:17;;;;;;;2.63;2.43;;;;;;;;;;4905340;29;20186;-75
2022/01/19 00:44:43;;;;;;;2.87;2.67;;;;;;;;;;4920688;29;20330;-75
2022/01/19 00:47:09;;;;;;;2.60;2.40;;;;;;;;;;4920954;29;20231;-75
2022/01/19 00:49:35;;;;;;;3.07;2.73;;;;;;;;;;4937915;29;20184;-75
2022/01/19 00:52:01;;;;;;;2.70;2.50;;;;;;;;;;4920759;29;20204;-75
2022/01/19 00:54:27;;;;;;;3.00;2.70;;;;;;;;;;4937667;29;20596;-75
2022/01/19 00:56:53;;;;;;;2.90;2.63;;;;;;;;;;4937759;29;20202;-75
2022/01/19 00:59:19;;;;;;;3.13;2.80;;;;;;;;;;4905161;29;20531;-75
2022/01/19 01:01:45;;;;;;;2.67;2.47;;;;;;;;;;4920565;29;20201;-75
2022/01/19 01:04:11;;;;;;;2.70;2.50;;;;;;;;;;4904681;29;20213;-75
2022/01/19 01:06:37;;;;;;;2.60;2.40;;;;;;;;;;4905036;29;20289;-75
2022/01/19 01:09:03;;;;;;;2.47;2.27;;;;;;;;;;4920657;29;20402;-75
2022/01/19 01:11:35;;;;;;;2.50;2.30;;;;;;;;;;4937632;29;20181;-74
2022/01/19 01:16:40;;;;;;;2.57;2.37;;;;;;;;;;4937734;29;20188;-75
2022/01/19 01:19:08;;;;;;;3.77;2.47;;;;;;;;;;4920437;29;20181;-75
2022/01/19 01:21:35;;;;;;;2.37;2.17;;;;;;;;;;4904701;29;20185;-75
2022/01/19 01:24:02;;;;;;;2.50;2.30;;;;;;;;;;4920156;29;20208;-75
2022/01/19 01:26:28;;;;;;;2.40;2.20;;;;;;;;;;4903395;29;20210;-75
2022/01/19 01:28:54;;;;;;;2.73;2.43;;;;;;;;;;4920229;29;20200;-76
2022/01/19 01:31:20;;;;;;;3.20;2.30;;;;;;;;;;4920275;29;20185;-75
2022/01/19 01:33:46;;;;;;;2.50;2.30;;;;;;;;;;4904355;29;20292;-75
2022/01/19 01:36:12;;;;;;;2.10;1.90;;;;;;;;;;4904527;29;20679;-75
2022/01/19 01:38:38;;;;;;;2.77;2.20;;;;;;;;;;4904481;29;20216;-75
2022/01/19 01:41:05;;;;;;;2.60;2.37;;;;;;;;;;4937017;29;20227;-75
2022/01/19 01:43:31;;;;;;;2.50;2.30;;;;;;;;;;4919970;29;20200;-74
2022/01/19 01:46:03;;;;;;;2.80;2.40;;;;;;;;;;4920176;29;20177;-75
2022/01/19 01:48:29;;;;;;;2.80;2.57;;;;;;;;;;4919940;29;20182;-75
2022/01/19 01:53:40;;;;;;;3.77;2.43;;;;;;;;;;4922494;29;20626;-75
2022/01/19 01:56:14;;;;;;;2.60;2.40;;;;;;;;;;4904173;29;20221;-76
2022/01/19 01:58:42;;;;;;;2.93;2.63;;;;;;;;;;4904001;29;20239;-75
2022/01/19 02:01:08;;;;;;;2.90;2.70;;;;;;;;;;4904048;29;20244;-76
2022/01/19 02:03:39;;;;;;;2.40;2.20;;;;;;;;;;4919585;29;20722;-75
2022/01/19 02:08:50;;;;;;;2.70;2.50;;;;;;;;;;4921593;29;20189;-75
2022/01/19 02:21:44;;;;;;;2.50;2.30;;;;;;;;;;4922167;29;20326;-75
2022/01/19 02:24:13;;;;;;;3.03;2.47;;;;;;;;;;4919014;29;20203;-75
2022/01/19 02:26:55;;;;;;;2.90;2.33;;;;;;;;;;4903545;29;20239;-75
2022/01/19 02:40:25;;;;;;;2.77;2.50;;;;;;;;;;4921813;29;20200;-75
2022/01/19 02:43:20;;;;;;;2.97;2.50;;;;;;;;;;4903261;29;20810;-75
2022/01/19 02:51:10;;;;;;;2.80;2.60;;;;;;;;;;4935761;29;20664;-75
2022/01/19 02:53:37;;;;;;;3.43;3.00;;;;;;;;;;4918421;29;20738;-75
2022/01/19 02:56:09;;;;;;;3.13;2.80;;;;;;;;;;4918521;29;20762;-74
2022/01/19 02:58:41;;;;;;;3.20;2.90;;;;;;;;;;4919405;29;20213;-76
2022/01/19 03:09:21;;;;;;;3.20;2.50;;;;;;;;;;4935761;29;20197;-75
2022/01/19 03:11:47;;;;;;;3.20;2.87;;;;;;;;;;4918499;29;20187;-75
2022/01/19 03:14:13;;;;;;;3.77;2.97;;;;;;;;;;4902590;29;20238;-75
2022/01/19 03:16:39;;;;;;;3.10;2.80;;;;;;;;;;4918234;29;20185;-74
2022/01/19 03:19:08;;;;;;;2.73;2.43;;;;;;;;;;4918196;29;20177;-75
2022/01/19 03:21:34;;;;;;;2.90;2.20;;;;;;;;;;4903193;29;20199;-75
2022/01/19 03:24:01;;;;;;;2.37;2.10;;;;;;;;;;4918183;29;20200;-75
2022/01/19 03:26:27;;;;;;;2.93;2.47;;;;;;;;;;4942279;23;20261;-75
2022/01/19 03:28:54;;;;;;;2.33;2.13;;;;;;;;;;4918219;29;20552;-75
2022/01/19 03:31:20;;;;;;;2.70;2.50;;;;;;;;;;4918258;29;20189;-75
2022/01/19 03:33:46;;;;;;;2.70;2.50;;;;;;;;;;4902161;29;20187;-76
2022/01/19 03:36:12;;;;;;;2.63;2.43;;;;;;;;;;4917960;29;20187;-75
2022/01/19 03:38:38;;;;;;;3.00;2.70;;;;;;;;;;4917853;29;20208;-76
2022/01/19 03:41:04;;;;;;;3.43;2.90;;;;;;;;;;4902413;29;20239;-76
2022/01/19 03:43:30;;;;;;;2.53;2.33;;;;;;;;;;4917829;29;20179;-76
2022/01/19 03:45:59;;;;;;;2.67;2.47;;;;;;;;;;4917770;29;20184;-75
2022/01/19 03:51:00;;;;;;;2.87;2.57;;;;;;;;;;4922568;29;20184;-75
2022/01/19 03:53:26;;;;;;;2.63;2.43;;;;;;;;;;4905953;29;20192;-75
2022/01/19 03:55:52;;;;;;;2.80;2.50;;;;;;;;;;4921996;29;20206;-75
2022/01/19 03:58:18;;;;;;;2.87;2.67;;;;;;;;;;4905771;29;20218;-76
2022/01/19 04:00:45;;;;;;;2.47;2.27;;;;;;;;;;4938582;29;20179;-76
2022/01/19 04:03:15;;;;;;;2.77;2.50;;;;;;;;;;4921770;29;20191;-76
2022/01/19 04:05:54;;;;;;;3.07;2.77;;;;;;;;;;4906292;29;20185;-76
2022/01/19 04:08:21;;;;;;;2.97;2.70;;;;;;;;;;4923525;29;20592;-76
2022/01/19 04:10:46;;;;;;;2.93;2.67;;;;;;;;;;4905875;29;20568;-76
2022/01/19 04:16:11;;;;;;;3.30;3.00;;;;;;;;;;4906054;29;20180;-76
2022/01/19 04:18:37;;;;;;;3.50;3.20;;;;;;;;;;4921292;29;20674;-76
2022/01/19 04:21:03;;;;;;;3.57;3.27;;;;;;;;;;4921397;29;20520;-76
2022/01/19 04:23:29;;;;;;;3.67;3.37;;;;;;;;;;4905228;29;20188;-76
2022/01/19 04:25:55;;;;;;;3.63;3.33;;;;;;;;;;4921274;29;20208;-76
2022/01/19 04:28:21;;;;;;;5.17;3.53;;;;;;;;;;4921257;29;20250;-76
2022/01/19 04:30:47;;;;;;;4.40;4.00;;;;;;;;;;4921286;29;20222;-76
2022/01/19 04:33:17;;;;;;;3.97;3.60;;;;;;;;;;4921039;29;20219;-75
2022/01/19 04:35:55;;;;;;;4.30;3.90;;;;;;;;;;4921820;29;20176;-75
2022/01/19 05:03:07;;;;;;;3.60;3.30;;;;;;;;;;4937896;29;20598;-75
2022/01/19 05:05:27;;;;;;;3.23;2.93;;;;;;;;;;4921580;29;20187;-75
2022/01/19 05:07:59;;;;;;;3.50;3.20;;;;;;;;;;4920567;29;20207;-75
2022/01/19 05:15:51;;;;;;;4.20;3.50;;;;;;;;;;4922927;29;20191;-75
2022/01/19 05:18:17;;;;;;;4.00;3.60;;;;;;;;;;4904532;29;20223;-75
2022/01/19 05:20:45;;;;;;;4.50;4.10;;;;;;;;;;4937915;29;20207;-75
2022/01/19 05:23:11;;;;;;;4.17;3.53;;;;;;;;;;4920214;29;20185;-76
2022/01/19 05:25:37;;;;;;;5.47;4.20;;;;;;;;;;4904477;29;20197;-76
2022/01/19 05:28:03;;;;;;;5.07;3.83;;;;;;;;;;4904554;29;20239;-76
2022/01/19 05:30:29;;;;;;;6.20;4.40;;;;;;;;;;4920033;29;20184;-76
2022/01/19 05:32:55;;;;;;;6.17;5.00;;;;;;;;;;4904341;29;20253;-75
2022/01/19 05:35:21;;;;;;;5.23;4.73;;;;;;;;;;4904336;29;20222;-76
2022/01/19 05:37:47;;;;;;;5.20;4.70;;;;;;;;;;4919815;29;20209;-75
2022/01/19 05:40:14;;;;;;;5.17;4.67;;;;;;;;;;4920019;29;20186;-76
2022/01/19 05:42:40;;;;;;;5.17;4.67;;;;;;;;;;4919827;29;20263;-75
2022/01/19 05:45:06;;;;;;;5.53;5.00;;;;;;;;;;4919569;29;20285;-75
2022/01/19 05:47:32;;;;;;;6.73;4.47;;;;;;;;;;4919546;29;20203;-75
2022/01/19 05:49:59;;;;;;;4.87;4.37;;;;;;;;;;4920020;29;20191;-75
2022/01/19 05:52:25;;;;;;;4.60;4.20;;;;;;;;;;4903918;29;20182;-76
2022/01/19 05:54:51;;;;;;;4.43;4.03;;;;;;;;;;4936546;29;20214;-75
2022/01/19 05:57:17;;;;;;;4.10;3.77;;;;;;;;;;4919285;29;20696;-76
2022/01/19 05:59:43;;;;;;;5.20;3.57;;;;;;;;;;4919986;29;20227;-75
2022/01/19 06:02:09;;;;;;;5.27;3.10;;;;;;;;;;4919487;29;20176;-75
2022/01/19 06:04:35;;;;;;;3.47;2.93;;;;;;;;;;4903607;29;20178;-76
2022/01/19 06:07:03;;;;;;;3.73;3.33;;;;;;;;;;4903593;29;20202;-75
2022/01/19 06:12:06;;;;;;;4.10;3.70;;;;;;;;;;4935746;29;20179;-77
2022/01/19 06:14:35;;;;;;;3.93;3.53;;;;;;;;;;4919392;29;20198;-77
2022/01/19 06:17:01;;;;;;;4.23;3.83;;;;;;;;;;4918921;29;20570;-77
2022/01/19 06:19:27;;;;;;;4.90;3.40;;;;;;;;;;4936344;29;20258;-78
2022/01/19 06:21:54;;;;;;;4.13;3.73;;;;;;;;;;4903431;29;20177;-78
2022/01/19 06:24:20;;;;;;;5.13;3.67;;;;;;;;;;4935890;29;20174;-78
2022/01/19 06:26:46;;;;;;;4.20;3.80;;;;;;;;;;4918725;29;20257;-78
2022/01/19 06:29:12;;;;;;;4.73;4.30;;;;;;;;;;4903396;29;20196;-78
2022/01/19 06:31:38;;;;;;;4.67;4.07;;;;;;;;;;4919100;29;20173;-78
2022/01/19 06:34:04;;;;;;;4.83;4.27;;;;;;;;;;4918825;29;20174;-78
2022/01/19 06:36:30;;;;;;;5.60;4.20;;;;;;;;;;4902989;29;20201;-78
2022/01/19 06:38:57;;;;;;;5.53;4.17;;;;;;;;;;4918645;29;20216;-78
2022/01/19 06:41:23;;;;;;;6.63;4.30;;;;;;;;;;4935767;29;20174;-78
2022/01/19 06:43:49;;;;;;;5.17;4.20;;;;;;;;;;4918578;29;20309;-78
2022/01/19 06:46:15;;;;;;;7.13;4.70;;;;;;;;;;4903108;29;20265;-78
2022/01/19 06:48:41;;;;;;;5.77;4.80;;;;;;;;;;4903139;29;20276;-78
2022/01/19 06:51:07;;;;;;;5.67;5.07;;;;;;;;;;4918426;29;20183;-78
2022/01/19 06:53:33;;;;;;;8.33;5.50;;;;;;;;;;4902685;29;20217;-78
2022/01/19 06:55:59;;;;;;;6.30;5.07;;;;;;;;;;4918814;29;20185;-78
2022/01/19 06:58:26;;;;;;;7.10;5.60;;;;;;;;;;4918642;29;20214;-78
2022/01/19 07:00:52;;;;;;;6.80;5.60;;;;;;;;;;4902629;29;20692;-78
2022/01/19 07:03:18;;;;;;;8.17;5.30;;;;;;;;;;4918485;29;20258;-78
2022/01/19 07:05:44;;;;;;;7.93;5.43;;;;;;;;;;4918351;29;20225;-78
2022/01/19 07:08:10;;;;;;;6.90;5.30;;;;;;;;;;4918368;29;20210;-78
2022/01/19 07:10:36;;;;;;;7.53;5.40;;;;;;;;;;4902894;29;20185;-78
2022/01/19 07:13:02;;;;;;;6.00;4.80;;;;;;;;;;4918255;29;20178;-78
2022/01/19 07:15:28;;;;;;;8.80;5.53;;;;;;;;;;4902296;29;20237;-78
2022/01/19 07:17:54;;;;;;;8.10;5.30;;;;;;;;;;4918015;29;20294;-78
2022/01/19 07:20:20;;;;;;;7.77;4.73;;;;;;;;;;4902592;29;20182;-78
2022/01/19 07:22:48;;;;;;;8.40;4.97;;;;;;;;;;4902531;29;20241;-77
2022/01/19 07:25:14;;;;;;;9.53;5.57;;;;;;;;;;4917134;29;20185;-77
2022/01/19 07:27:40;;;;;;;8.17;5.23;;;;;;;;;;4917974;29;20213;-77
2022/01/19 07:30:07;;;;;;;8.30;4.50;;;;;;;;;;4917936;29;20185;-78
2022/01/19 07:32:34;;;;;;;6.37;4.43;;;;;;;;;;4902287;29;20202;-78
2022/01/19 07:35:01;;;;;;;5.87;3.70;;;;;;;;;;4902240;29;20189;-77
2022/01/19 07:37:27;;;;;;;4.30;3.43;;;;;;;;;;4934725;29;20239;-77
2022/01/19 07:39:53;;;;;;;6.40;4.20;;;;;;;;;;4918170;29;20204;-77
2022/01/19 07:42:19;;;;;;;4.50;3.50;;;;;;;;;;4902298;29;20208;-76
2022/01/19 07:44:46;;;;;;;5.30;3.30;;;;;;;;;;4917677;29;20219;-77
2022/01/19 07:47:12;;;;;;;4.03;2.97;;;;;;;;;;4917749;29;20702;-77
2022/01/19 07:49:38;;;;;;;5.73;3.57;;;;;;;;;;4918094;29;20185;-76
2022/01/19 07:52:04;;;;;;;4.63;4.00;;;;;;;;;;4902055;29;20193;-78
2022/01/19 07:54:30;;;;;;;5.27;4.27;;;;;;;;;;4902183;29;20200;-78
2022/01/19 07:56:56;;;;;;;5.87;4.60;;;;;;;;;;4901842;29;20213;-78
2022/01/19 07:59:22;;;;;;;7.90;5.43;;;;;;;;;;4902293;29;20181;-78
2022/01/19 08:01:48;;;;;;;6.50;5.43;;;;;;;;;;4917586;29;20181;-78
2022/01/19 08:04:14;;;;;;;9.37;5.80;;;;;;;;;;4917532;29;20217;-81
2022/01/19 08:06:40;;;;;;;9.03;5.47;;;;;;;;;;4901925;29;20236;-78
2022/01/19 08:09:07;;;;;;;9.47;6.30;;;;;;;;;;4917226;29;20223;-77
2022/01/19 08:11:33;;;;;;;8.00;6.03;;;;;;;;;;4902160;29;20189;-77
2022/01/19 08:13:59;;;;;;;8.00;5.30;;;;;;;;;;4917491;29;20188;-77
2022/01/19 08:16:25;;;;;;;8.73;5.70;;;;;;;;;;4917656;29;20299;-76
2022/01/19 08:18:51;;;;;;;9.00;5.70;;;;;;;;;;4934449;29;20209;-77
2022/01/19 08:21:17;;;;;;;10.17;5.93;;;;;;;;;;4917523;29;20190;-77
2022/01/19 08:23:43;;;;;;;8.60;5.87;;;;;;;;;;4917691;29;20183;-78
2022/01/19 08:26:13;;;;;;;7.87;5.70;;;;;;;;;;4917554;29;20555;-78
2022/01/19 08:28:39;;;;;;;11.27;5.90;;;;;;;;;;4917531;29;20187;-78
2022/01/19 08:31:05;;;;;;;8.43;5.87;;;;;;;;;;4917461;29;20189;-77
2022/01/19 08:33:31;;;;;;;7.87;6.00;;;;;;;;;;4917342;29;20183;-77
2022/01/19 08:35:57;;;;;;;8.93;6.87;;;;;;;;;;4918859;29;20185;-77
2022/01/19 08:38:23;;;;;;;10.70;6.20;;;;;;;;;;4921072;29;20249;-78
2022/01/19 08:40:50;;;;;;;8.87;5.93;;;;;;;;;;4934504;29;20551;-78
2022/01/19 08:43:16;;;;;;;9.73;5.63;;;;;;;;;;4901210;29;20186;-78
2022/01/19 08:45:43;;;;;;;6.50;5.33;;;;;;;;;;4901596;29;20189;-77
2022/01/19 08:48:09;;;;;;;7.53;4.90;;;;;;;;;;4901330;29;20297;-77
2022/01/19 08:50:35;;;;;;;7.07;4.97;;;;;;;;;;4901911;29;20190;-76
2022/01/19 08:53:02;;;;;;;6.23;5.00;;;;;;;;;;4901600;29;20182;-76
2022/01/19 08:55:28;;;;;;;7.73;4.80;;;;;;;;;;4901038;29;20182;-76
2022/01/19 08:57:54;;;;;;;6.90;5.00;;;;;;;;;;4901509;29;20218;-76
2022/01/19 09:00:21;;;;;;;7.93;4.23;;;;;;;;;;4918291;29;20222;-77
2022/01/19 09:02:48;;;;;;;9.37;4.07;;;;;;;;;;4901222;29;20660;-76
2022/01/19 09:05:14;;;;;;;5.50;3.40;;;;;;;;;;4901086;29;20179;-77
2022/01/19 09:07:40;;;;;;;5.97;3.70;;;;;;;;;;4885500;29;20233;-77
2022/01/19 09:10:07;;;;;;;6.37;4.40;;;;;;;;;;4902608;29;20265;-77
2022/01/19 09:12:34;;;;;;;7.27;4.70;;;;;;;;;;4946549;29;20273;-77
2022/01/19 09:15:00;;;;;;;6.87;4.40;;;;;;;;;;4955610;29;20284;-76
2022/01/19 09:17:26;;;;;;;9.03;4.77;;;;;;;;;;4905424;29;20289;-77
2022/01/19 09:19:52;;;;;;;4.87;4.20;;;;;;;;;;4901219;29;20194;-77
2022/01/19 09:22:19;;;;;;;6.90;3.87;;;;;;;;;;4900882;29;20175;-77
2022/01/19 09:24:45;;;;;;;7.03;3.80;;;;;;;;;;4905858;29;20188;-76
2022/01/19 09:27:11;;;;;;;6.23;3.83;;;;;;;;;;4949099;23;20225;-74
2022/01/19 09:29:42;;;;;;;6.47;4.03;;;;;;;;;;4939265;29;20710;-74
2022/01/19 09:32:10;;;;;;;6.87;4.03;;;;;;;;;;4939058;29;20225;-74
2022/01/19 09:34:36;;;;;;;6.53;4.07;;;;;;;;;;4939059;29;20180;-74
2022/01/19 09:37:02;;;;;;;8.37;4.03;;;;;;;;;;4934024;29;20687;-74
2022/01/19 09:39:28;;;;;;;5.37;4.00;;;;;;;;;;4920187;29;20596;-74
2022/01/19 09:41:55;;;;;;;5.17;3.67;;;;;;;;;;4937007;29;20178;-74
2022/01/19 09:44:22;;;;;;;7.77;3.73;;;;;;;;;;4936550;29;20258;-74
2022/01/19 09:46:49;;;;;;;5.53;4.07;;;;;;;;;;4919216;29;20197;-74
2022/01/19 09:49:19;;;;;;;7.13;3.77;;;;;;;;;;4904284;29;20188;-74
2022/01/19 09:51:46;;;;;;;7.17;3.90;;;;;;;;;;4919709;29;20183;-74
2022/01/19 09:54:17;;;;;;;6.83;4.10;;;;;;;;;;4903933;29;20294;-74
2022/01/19 09:56:44;;;;;;;5.17;3.57;;;;;;;;;;4904039;29;20647;-74
2022/01/19 09:59:13;;;;;;;7.37;4.30;;;;;;;;;;4936490;29;20290;-74
2022/01/19 10:01:48;;;;;;;6.27;4.10;;;;;;;;;;4920184;29;20622;-74
2022/01/19 10:04:19;;;;;;;5.90;3.80;;;;;;;;;;4919264;29;20181;-74
2022/01/19 10:06:45;;;;;;;10.33;4.00;;;;;;;;;;4903775;29;20211;-74
2022/01/19 10:09:11;;;;;;;6.63;4.23;;;;;;;;;;4919336;29;20196;-74
2022/01/19 10:17:08;;;;;;;9.33;3.93;;;;;;;;;;4921945;29;20596;-74
2022/01/19 10:19:41;;;;;;;6.13;3.83;;;;;;;;;;4919466;29;20226;-74
2022/01/19 10:22:17;;;;;;;6.53;3.90;;;;;;;;;;4919355;29;20184;-74
2022/01/19 10:24:46;;;;;;;7.87;4.20;;;;;;;;;;4918895;29;20247;-73
2022/01/19 10:27:21;;;;;;;7.77;3.80;;;;;;;;;;4918850;29;20296;-73
2022/01/19 10:29:49;;;;;;;7.23;3.57;;;;;;;;;;4918955;29;20183;-73
2022/01/19 10:32:15;;;;;;;6.60;4.23;;;;;;;;;;4903273;29;20207;-73
2022/01/19 10:34:41;;;;;;;6.33;3.60;;;;;;;;;;4919101;29;20183;-74
2022/01/19 10:37:07;;;;;;;5.87;3.67;;;;;;;;;;4918967;29;20667;-74
2022/01/19 10:39:41;;;;;;;5.83;3.70;;;;;;;;;;4918929;29;20261;-78
2022/01/19 10:42:09;;;;;;;6.57;3.60;;;;;;;;;;4918664;29;20177;-78
2022/01/19 10:44:35;;;;;;;7.27;3.97;;;;;;;;;;4918479;29;20632;-79
2022/01/19 10:47:01;;;;;;;5.53;3.80;;;;;;;;;;4918751;29;20204;-79
2022/01/19 10:49:27;;;;;;;6.53;3.80;;;;;;;;;;4919317;29;20185;-80
2022/01/19 10:51:58;;;;;;;5.73;3.77;;;;;;;;;;4919303;29;20181;-80
2022/01/19 10:54:30;;;;;;;6.27;4.30;;;;;;;;;;4903767;29;20664;-80
2022/01/19 10:56:57;;;;;;;6.43;4.20;;;;;;;;;;4918910;29;20206;-79
2022/01/19 10:59:30;;;;;;;5.90;4.17;;;;;;;;;;4902986;29;20217;-79
2022/01/19 11:01:59;;;;;;;6.97;4.43;;;;;;;;;;4918985;29;20177;-79
2022/01/19 11:04:35;;;;;;;9.60;4.50;;;;;;;;;;4903157;29;20186;-79
2022/01/19 11:07:06;;;;;;;6.63;3.97;;;;;;;;;;4903341;29;20592;-79
2022/01/19 11:09:34;;;;;;;7.37;3.90;;;;;;;;;;4918437;29;20251;-79
2022/01/19 11:12:04;;;;;;;5.60;3.90;;;;;;;;;;4902905;29;20186;-79
2022/01/19 11:14:30;;;;;;;7.73;4.03;;;;;;;;;;4903036;29;20184;-79
2022/01/19 11:16:56;;;;;;;5.73;4.00;;;;;;;;;;4902484;29;20212;-79
2022/01/19 11:19:23;;;;;;;8.47;4.27;;;;;;;;;;4902648;29;20590;-79
2022/01/19 11:22:08;;;;;;;5.90;4.57;;;;;;;;;;4918324;29;20181;-79
2022/01/19 11:24:51;;;;;;;11.03;6.80;;;;;;;;;;4917877;29;20182;-79
2022/01/19 11:27:17;;;;;;;11.37;6.97;;;;;;;;;;4935574;29;20584;-76
2022/01/19 11:29:43;;;;;;;6.93;4.70;;;;;;;;;;4918250;29;20189;-78
2022/01/19 11:32:15;;;;;;;6.73;4.03;;;;;;;;;;4918391;29;20182;-77
2022/01/19 11:34:47;;;;;;;6.97;4.20;;;;;;;;;;4917888;29;20193;-78
2022/01/19 11:37:14;;;;;;;8.50;4.83;;;;;;;;;;4934846;29;20194;-77
2022/01/19 11:39:59;;;;;;;7.60;4.50;;;;;;;;;;4918214;29;20178;-77
2022/01/19 11:42:25;;;;;;;7.73;4.47;;;;;;;;;;4918070;29;20174;-77
2022/01/19 11:44:51;;;;;;;5.90;4.20;;;;;;;;;;4902140;29;20188;-77
2022/01/19 11:47:25;;;;;;;6.63;4.30;;;;;;;;;;4917678;29;20297;-77
2022/01/19 11:49:52;;;;;;;7.33;4.60;;;;;;;;;;4918077;29;20208;-77
2022/01/19 11:52:20;;;;;;;5.57;4.37;;;;;;;;;;4917870;29;20215;-75
2022/01/19 11:54:46;;;;;;;8.80;4.73;;;;;;;;;;4902051;29;20188;-76
2022/01/19 11:57:14;;;;;;;7.07;4.47;;;;;;;;;;4917720;29;20203;-79
2022/01/19 11:59:46;;;;;;;6.80;4.70;;;;;;;;;;4917916;29;20222;-79
2022/01/19 12:02:36;;;;;;;6.60;4.53;;;;;;;;;;4935043;29;20181;-79
2022/01/19 12:05:07;;;;;;;8.10;4.33;;;;;;;;;;4914891;29;20206;-80
2022/01/19 12:07:52;;;;;;;8.97;4.90;;;;;;;;;;4917848;29;20262;-79
2022/01/19 12:10:31;;;;;;;8.47;4.63;;;;;;;;;;4902813;29;20185;-78
2022/01/19 12:13:16;;;;;;;7.57;5.30;;;;;;;;;;4921378;29;20188;-79
2022/01/19 12:15:56;;;;;;;9.63;6.13;;;;;;;;;;4921511;29;20189;-79
2022/01/19 12:18:37;;;;;;;7.93;5.27;;;;;;;;;;4906445;29;20253;-79
2022/01/19 12:21:04;;;;;;;7.97;5.40;;;;;;;;;;4921500;29;20598;-79
2022/01/19 12:23:31;;;;;;;9.53;5.93;;;;;;;;;;4921101;29;20322;-79
2022/01/19 12:26:00;;;;;;;7.13;5.00;;;;;;;;;;4921061;29;20518;-79
2022/01/19 12:28:38;;;;;;;8.03;5.70;;;;;;;;;;4905491;29;20284;-79
2022/01/19 12:31:22;;;;;;;8.63;6.07;;;;;;;;;;4921063;29;20188;-78
2022/01/19 12:34:10;;;;;;;7.63;6.20;;;;;;;;;;4920849;29;20633;-78
2022/01/19 12:36:42;;;;;;;11.30;5.77;;;;;;;;;;4921102;29;20185;-79
2022/01/19 12:39:26;;;;;;;10.77;6.40;;;;;;;;;;4920855;29;20213;-79
2022/01/19 12:42:04;;;;;;;9.10;6.33;;;;;;;;;;4921056;29;20180;-79
2022/01/19 12:44:38;;;;;;;12.47;7.03;;;;;;;;;;4920951;29;20272;-78
2022/01/19 12:47:05;;;;;;;9.60;7.20;;;;;;;;;;4920758;29;20401;-78
2022/01/19 12:49:32;;;;;;;12.53;7.47;;;;;;;;;;4920837;29;20279;-78
2022/01/19 12:52:00;;;;;;;9.70;6.90;;;;;;;;;;4905307;29;20237;-79
2022/01/19 12:54:27;;;;;;;10.40;6.83;;;;;;;;;;4918599;29;20259;-78
2022/01/19 12:56:58;;;;;;;12.67;7.47;;;;;;;;;;4926018;29;20205;-78
2022/01/19 12:59:24;;;;;;;10.90;7.43;;;;;;;;;;4945938;29;20219;-78
2022/01/19 13:01:50;;;;;;;12.20;7.90;;;;;;;;;;4919544;29;20192;-78
2022/01/19 13:04:26;;;;;;;12.20;7.47;;;;;;;;;;4927267;29;20174;-78
2022/01/19 13:06:55;;;;;;;12.33;7.87;;;;;;;;;;4926722;29;20212;-78
2022/01/19 13:09:31;;;;;;;10.53;7.37;;;;;;;;;;4911860;29;20250;-78
2022/01/19 13:12:00;;;;;;;11.03;7.40;;;;;;;;;;4911570;29;20188;-80
2022/01/19 13:14:29;;;;;;;11.63;7.20;;;;;;;;;;4908100;29;20248;-77
2022/01/19 13:16:55;;;;;;;9.20;6.47;;;;;;;;;;4937680;29;20754;-78
2022/01/19 13:19:22;;;;;;;11.50;6.67;;;;;;;;;;4919216;29;20223;-78
2022/01/19 13:21:58;;;;;;;12.17;7.77;;;;;;;;;;4912390;29;20191;-78
2022/01/19 13:24:30;;;;;;;10.90;7.70;;;;;;;;;;4920595;29;20181;-78
2022/01/19 13:27:04;;;;;;;12.00;7.73;;;;;;;;;;4905801;29;20213;-78
2022/01/19 13:29:39;;;;;;;12.87;7.33;;;;;;;;;;4905195;29;20209;-78
2022/01/19 13:32:08;;;;;;;14.13;8.33;;;;;;;;;;4920702;29;20187;-78
2022/01/19 13:34:48;;;;;;;13.70;8.50;;;;;;;;;;4920615;29;20177;-78
2022/01/19 13:37:14;;;;;;;13.77;8.63;;;;;;;;;;4920597;29;20286;-78
2022/01/19 13:39:40;;;;;;;13.27;8.67;;;;;;;;;;4920746;29;20614;-78
2022/01/19 13:42:06;;;;;;;12.63;8.37;;;;;;;;;;4904991;29;20625;-78
2022/01/19 13:44:33;;;;;;;13.60;8.47;;;;;;;;;;4920645;29;20231;-77
2022/01/19 13:47:28;;;;;;;12.97;8.87;;;;;;;;;;4921687;29;20567;-77
2022/01/19 13:49:54;;;;;;;12.60;8.47;;;;;;;;;;4904159;29;20196;-77
2022/01/19 13:52:25;;;;;;;13.90;9.10;;;;;;;;;;4887008;29;20184;-77
2022/01/19 13:54:51;;;;;;;13.87;8.57;;;;;;;;;;4901622;29;20182;-77
2022/01/19 13:57:27;;;;;;;12.10;7.93;;;;;;;;;;4901238;29;20277;-77
2022/01/19 13:59:53;;;;;;;12.87;8.17;;;;;;;;;;4902074;29;20184;-80
2022/01/19 14:02:20;;;;;;;13.33;8.17;;;;;;;;;;4887057;29;20185;-80
2022/01/19 14:04:51;;;;;;;12.87;8.30;;;;;;;;;;4889479;29;20241;-79
2022/01/19 14:07:17;;;;;;;14.07;9.83;;;;;;;;;;4897442;29;20208;-79
2022/01/19 14:09:44;;;;;;;12.50;7.80;;;;;;;;;;4897141;29;20184;-79
2022/01/19 14:12:18;;;;;;;11.03;6.83;;;;;;;;;;4911712;29;20205;-79
2022/01/19 14:14:58;;;;;;;11.13;7.63;;;;;;;;;;4896787;29;20185;-79
2022/01/19 14:17:29;;;;;;;12.53;8.17;;;;;;;;;;4896066;29;20248;-79
2022/01/19 14:19:55;;;;;;;11.00;7.03;;;;;;;;;;4892674;29;20215;-79
2022/01/19 14:22:21;;;;;;;12.10;7.73;;;;;;;;;;4906735;29;20183;-79
2022/01/19 14:24:49;;;;;;;12.57;8.13;;;;;;;;;;4908732;29;20639;-79
2022/01/19 14:27:15;;;;;;;13.63;8.03;;;;;;;;;;4893776;29;20227;-79
2022/01/19 14:30:03;;;;;;;11.03;6.77;;;;;;;;;;4909609;29;20266;-79
2022/01/19 14:32:40;;;;;;;13.97;8.60;;;;;;;;;;4910083;29;20186;-79
2022/01/19 14:35:22;;;;;;;13.17;8.60;;;;;;;;;;4909158;29;20175;-79
2022/01/19 14:38:07;;;;;;;12.43;8.37;;;;;;;;;;4909284;29;20702;-79
2022/01/19 14:40:36;;;;;;;12.50;8.43;;;;;;;;;;4909324;29;20188;-79
2022/01/19 14:43:02;;;;;;;13.50;8.50;;;;;;;;;;4893827;29;20184;-79
2022/01/19 14:45:36;;;;;;;11.93;7.97;;;;;;;;;;4907176;29;20175;-79
2022/01/19 14:48:15;;;;;;;14.00;8.77;;;;;;;;;;4892121;29;20233;-79
2022/01/19 14:50:41;;;;;;;11.70;8.10;;;;;;;;;;4900460;29;20647;-78
2022/01/19 14:53:08;;;;;;;14.97;9.70;;;;;;;;;;4901453;29;20203;-81
2022/01/19 14:55:35;;;;;;;13.73;8.20;;;;;;;;;;4900948;29;20217;-79
2022/01/19 14:58:02;;;;;;;13.87;8.87;;;;;;;;;;4901246;29;20216;-79
2022/01/19 15:00:29;;;;;;;14.30;9.57;;;;;;;;;;4900571;29;20655;-79
2022/01/19 15:03:01;;;;;;;16.23;10.40;;;;;;;;;;4886376;29;20191;-79
2022/01/19 15:05:37;;;;;;;15.17;10.23;;;;;;;;;;4887569;29;20674;-79
2022/01/19 15:08:04;;;;;;;15.50;10.20;;;;;;;;;;4900356;29;20600;-79
2022/01/19 15:10:31;;;;;;;13.67;9.47;;;;;;;;;;4899908;29;20214;-80
2022/01/19 15:12:57;;;;;;;14.80;9.50;;;;;;;;;;4899994;29;20183;-80
2022/01/19 15:15:25;;;;;;;14.50;9.37;;;;;;;;;;4884095;29;20203;-80
2022/01/19 15:17:52;;;;;;;13.27;7.90;;;;;;;;;;4884104;29;20218;-80
2022/01/19 15:20:18;;;;;;;12.20;8.23;;;;;;;;;;4884244;29;20183;-80
2022/01/19 15:22:45;;;;;;;13.40;8.03;;;;;;;;;;4899606;29;20646;-80
2022/01/19 15:25:11;;;;;;;12.60;8.00;;;;;;;;;;4899464;29;20323;-80
2022/01/19 15:27:37;;;;;;;12.23;8.77;;;;;;;;;;4917765;23;20320;-78
2022/01/19 15:30:05;;;;;;;13.57;7.73;;;;;;;;;;4923478;29;20180;-78
2022/01/19 15:32:31;;;;;;;13.77;8.50;;;;;;;;;;4921894;29;20183;-79
2022/01/19 15:34:57;;;;;;;16.97;9.37;;;;;;;;;;4940370;29;20179;-78
2022/01/19 15:37:23;;;;;;;17.27;10.47;;;;;;;;;;4939989;29;20194;-78
2022/01/19 15:39:52;;;;;;;16.40;10.33;;;;;;;;;;4939650;29;20190;-78
2022/01/19 15:42:18;;;;;;;14.10;9.07;;;;;;;;;;4942038;29;20204;-78
2022/01/19 15:44:44;;;;;;;12.80;8.37;;;;;;;;;;4924858;29;20182;-78
2022/01/19 15:47:10;;;;;;;13.37;8.67;;;;;;;;;;4925869;29;20210;-78
2022/01/19 15:49:37;;;;;;;12.23;8.00;;;;;;;;;;4926192;29;20193;-78
2022/01/19 15:52:04;;;;;;;11.27;7.60;;;;;;;;;;4941787;29;20200;-78
2022/01/19 15:54:30;;;;;;;11.87;7.43;;;;;;;;;;4941569;29;20181;-78
2022/01/19 15:56:56;;;;;;;11.37;7.47;;;;;;;;;;4940164;29;20228;-78
2022/01/19 15:59:23;;;;;;;10.37;7.27;;;;;;;;;;4924728;29;20687;-78
2022/01/19 16:01:49;;;;;;;14.47;7.90;;;;;;;;;;4940324;29;20186;-78
2022/01/19 16:04:15;;;;;;;12.80;7.80;;;;;;;;;;4926328;29;20183;-78
2022/01/19 16:06:42;;;;;;;12.30;7.20;;;;;;;;;;4926260;29;20249;-78
2022/01/19 16:09:16;;;;;;;9.90;6.80;;;;;;;;;;4934811;29;20298;-77
2022/01/19 16:11:42;;;;;;;9.03;6.83;;;;;;;;;;4945708;29;20186;-77
2022/01/19 16:14:09;;;;;;;10.07;6.57;;;;;;;;;;4936480;29;20181;-78